Ulan Bator, Mongolia
Current Conditions -  °F | °C
As of 2:30 PM on Friday 31 Oct 2014 (Local Time) from ZMUB Reporting Station
Scattered Clouds Scattered Clouds  
Wind Chill: 32°   Ceiling: Unl
Heat Index: 37°   Visibility: 6mi
Dew Point: 21°   Wind: 7mph
Humidity: 52%   Direction: 280°W
Pressure: 29.94"   Gusts: NA
Location:  47.92°N, 106.91°E
Report Text: ZMUB 310630Z 28003MPS 230V020 9999 SCT033 03/M06 Q1014 NOSIG RMK QFE653.4 49 MOP
Loading
Personal Weather Stations






























Interactive Weather Map
Tropical Storm Tracking
New forecast layout! Learn more

10-Day Weather Forecast

Advertisements
Track Severe Weather on mobile